createdAt,value
2022-09-12T00:00:25.498Z,53.30
2022-09-12T00:02:56.501Z,50.50
2022-09-12T00:05:26.055Z,52.90
2022-09-12T00:07:56.318Z,52.20
2022-09-12T00:10:25.460Z,53.10
2022-09-12T00:12:55.085Z,55.90
2022-09-12T00:15:24.383Z,55.10
2022-09-12T00:17:53.845Z,55.00
2022-09-12T00:20:23.211Z,55.70
2022-09-12T00:22:52.368Z,56.20
2022-09-12T00:25:21.454Z,54.40
2022-09-12T00:27:50.697Z,56.30
2022-09-12T00:30:20.279Z,59.50
2022-09-12T00:32:50.405Z,58.40
2022-09-12T00:35:19.708Z,57.50
2022-09-12T00:37:48.732Z,55.90
2022-09-12T00:40:18.708Z,56.20
2022-09-12T00:42:50.861Z,59.90
2022-09-12T00:45:30.722Z,58.50
2022-09-12T00:48:05.691Z,58.40
2022-09-12T00:50:35.499Z,55.40
2022-09-12T00:53:10.170Z,57.00
2022-09-12T00:55:50.206Z,60.00
2022-09-12T00:58:35.784Z,56.90
2022-09-12T01:01:05.288Z,58.50
2022-09-12T01:03:34.870Z,55.40
2022-09-12T01:06:21.022Z,57.30
2022-09-12T01:08:52.360Z,54.70
2022-09-12T01:11:23.569Z,58.00
2022-09-12T01:13:53.389Z,57.50
2022-09-12T01:16:22.820Z,61.00
2022-09-12T01:19:06.256Z,58.40
2022-09-12T01:21:59.357Z,55.10
2022-09-12T01:24:48.022Z,56.80
2022-09-12T01:27:44.440Z,56.20
2022-09-12T01:31:07.977Z,55.40
2022-09-12T01:33:52.060Z,56.00
2022-09-12T01:37:18.237Z,55.00
2022-09-12T01:40:10.139Z,56.60
2022-09-12T01:43:04.369Z,54.70
2022-09-12T01:46:04.650Z,55.00
2022-09-12T01:48:46.493Z,56.50
2022-09-12T01:51:42.804Z,56.80
2022-09-12T01:54:52.169Z,56.10
2022-09-12T01:57:34.739Z,57.10
2022-09-12T02:00:12.993Z,57.20
2022-09-12T02:03:16.685Z,58.30
2022-09-12T02:06:14.406Z,59.80
2022-09-12T02:08:57.593Z,57.90
2022-09-12T02:11:27.378Z,56.80
2022-09-12T02:14:24.350Z,56.70
2022-09-12T02:17:18.932Z,57.60
2022-09-12T02:20:44.366Z,57.30
2022-09-12T02:23:27.987Z,57.00
2022-09-12T02:26:04.709Z,58.90
2022-09-12T02:28:39.578Z,58.50
2022-09-12T02:31:23.614Z,57.60
2022-09-12T02:34:41.698Z,58.70
2022-09-12T02:37:57.955Z,57.70
2022-09-12T02:40:28.505Z,56.00
2022-09-12T02:42:58.343Z,59.00
2022-09-12T02:45:28.849Z,56.10
2022-09-12T02:48:36.891Z,56.70
2022-09-12T02:51:06.351Z,54.00
2022-09-12T02:53:37.064Z,55.00
2022-09-12T02:56:13.564Z,55.00
2022-09-12T02:58:43.798Z,53.00
2022-09-12T03:01:41.140Z,53.80
2022-09-12T03:05:05.212Z,52.60
2022-09-12T03:08:12.269Z,54.60
2022-09-12T03:11:11.605Z,54.40
2022-09-12T03:14:03.116Z,51.40
2022-09-12T03:16:59.638Z,51.70
2022-09-12T03:20:10.019Z,52.50
2022-09-12T03:23:11.891Z,52.70
2022-09-12T03:25:52.021Z,55.20
2022-09-12T03:28:24.759Z,52.00
2022-09-12T03:30:55.750Z,53.10
2022-09-12T03:33:27.403Z,55.70
2022-09-12T03:35:58.048Z,52.20
2022-09-12T03:38:27.130Z,54.90
2022-09-12T03:40:56.552Z,53.30
2022-09-12T03:43:25.806Z,53.00
2022-09-12T03:45:55.017Z,55.90
2022-09-12T03:48:24.228Z,56.20
2022-09-12T03:50:53.589Z,54.80
2022-09-12T03:53:22.785Z,54.80
2022-09-12T03:55:51.985Z,54.60
2022-09-12T03:58:22.313Z,54.50
2022-09-12T04:00:51.844Z,53.80
2022-09-12T04:03:21.247Z,52.30
2022-09-12T04:05:50.478Z,54.00
2022-09-12T04:08:19.813Z,54.40
2022-09-12T04:10:49.200Z,54.20
2022-09-12T04:13:18.613Z,53.20
2022-09-12T04:15:59.628Z,53.60
2022-09-12T04:18:30.198Z,53.10
2022-09-12T04:21:00.107Z,53.30
2022-09-12T04:23:29.625Z,53.90
2022-09-12T04:26:01.955Z,54.40
2022-09-12T04:28:31.766Z,56.00
2022-09-12T04:31:08.422Z,55.40
2022-09-12T04:33:38.590Z,54.00
2022-09-12T04:36:11.416Z,54.80
2022-09-12T04:38:40.596Z,52.10
2022-09-12T04:41:19.180Z,53.10
2022-09-12T04:43:52.901Z,50.00
2022-09-12T04:46:22.847Z,53.30
2022-09-12T04:48:56.698Z,53.10
2022-09-12T04:51:34.791Z,51.30
2022-09-12T04:54:13.270Z,52.40
2022-09-12T04:56:45.217Z,50.90
2022-09-12T04:59:17.513Z,51.20
2022-09-12T05:01:46.909Z,49.80
2022-09-12T05:04:16.303Z,50.10
2022-09-12T05:06:48.030Z,48.60
2022-09-12T05:09:17.580Z,49.80
2022-09-12T05:12:03.862Z,50.20
2022-09-12T05:14:35.234Z,51.00
2022-09-12T05:17:07.005Z,50.20
2022-09-12T05:19:36.513Z,49.80
2022-09-12T05:22:07.791Z,51.00
2022-09-12T05:24:39.045Z,51.00
2022-09-12T05:27:08.546Z,50.50
2022-09-12T05:29:37.995Z,50.40
2022-09-12T05:32:10.771Z,49.70
2022-09-12T05:34:40.784Z,50.40
2022-09-12T05:37:10.930Z,50.90
2022-09-12T05:39:40.243Z,50.60
2022-09-12T05:42:10.192Z,52.00
2022-09-12T05:44:39.436Z,49.30
2022-09-12T05:47:08.942Z,49.00
2022-09-12T05:49:39.071Z,49.30
2022-09-12T05:52:08.481Z,50.30
2022-09-12T05:54:37.852Z,49.20
2022-09-12T05:57:07.458Z,48.80
2022-09-12T05:59:36.951Z,49.60
2022-09-12T06:02:06.311Z,49.60
2022-09-12T06:04:35.618Z,49.40
2022-09-12T06:07:05.786Z,51.10
2022-09-12T06:09:35.135Z,49.30
2022-09-12T06:12:04.995Z,48.00
2022-09-12T06:14:34.436Z,49.60
2022-09-12T06:17:03.589Z,48.60
2022-09-12T06:19:33.112Z,49.70
2022-09-12T06:22:02.712Z,49.90
2022-09-12T06:24:31.972Z,47.90
2022-09-12T06:27:01.047Z,48.70
2022-09-12T06:29:30.874Z,48.00
2022-09-12T06:32:00.415Z,48.70
2022-09-12T06:34:29.479Z,49.30
2022-09-12T06:36:59.198Z,47.90
2022-09-12T06:39:28.563Z,49.20
2022-09-12T06:41:58.034Z,50.60
2022-09-12T06:44:27.149Z,46.90
2022-09-12T06:46:56.530Z,48.80
2022-09-12T06:49:25.905Z,47.50
2022-09-12T06:51:55.175Z,49.50
2022-09-12T06:54:24.766Z,49.30
2022-09-12T06:56:57.122Z,48.50
2022-09-12T06:59:26.870Z,47.20
2022-09-12T07:01:56.079Z,46.90
2022-09-12T07:04:25.364Z,48.50
2022-09-12T07:06:54.509Z,48.80
2022-09-12T07:09:24.113Z,48.80
2022-09-12T07:11:53.449Z,47.90
2022-09-12T07:14:22.858Z,48.70
2022-09-12T07:16:52.009Z,46.30
2022-09-12T07:19:21.266Z,47.00
2022-09-12T07:21:54.206Z,48.00
2022-09-12T07:24:25.901Z,47.50
2022-09-12T07:26:55.125Z,47.50
2022-09-12T07:29:39.546Z,48.60
2022-09-12T07:32:09.183Z,46.10
2022-09-12T07:34:38.344Z,49.70
2022-09-12T07:37:07.599Z,46.80
2022-09-12T07:39:36.759Z,46.80
2022-09-12T07:42:06.181Z,47.00
2022-09-12T07:44:35.336Z,46.50
2022-09-12T07:47:04.786Z,45.80
2022-09-12T07:49:34.264Z,49.60
2022-09-12T07:52:04.014Z,46.60
2022-09-12T07:54:34.383Z,46.80
2022-09-12T07:57:03.350Z,50.40
2022-09-12T07:59:51.374Z,47.60
2022-09-12T08:02:22.391Z,49.30
2022-09-12T08:04:52.463Z,46.30
2022-09-12T08:07:21.702Z,47.10
2022-09-12T08:09:51.053Z,47.70
2022-09-12T08:12:21.421Z,46.90
2022-09-12T08:14:50.673Z,46.90
2022-09-12T08:17:19.880Z,46.10
2022-09-12T08:19:49.374Z,48.70
2022-09-12T08:22:22.913Z,47.30
2022-09-12T08:24:52.613Z,44.70
2022-09-12T08:27:21.760Z,46.40
2022-09-12T08:29:50.770Z,45.10
2022-09-12T08:32:20.152Z,45.40
2022-09-12T08:34:49.403Z,48.20
2022-09-12T08:37:18.537Z,49.50
2022-09-12T08:39:47.793Z,47.00
2022-09-12T08:42:52.179Z,46.40
2022-09-12T08:45:47.628Z,48.00
2022-09-12T08:48:16.979Z,45.70
2022-09-12T08:50:49.993Z,46.90
2022-09-12T08:53:26.865Z,46.90
2022-09-12T08:56:01.186Z,45.20
2022-09-12T08:58:32.541Z,47.00
2022-09-12T09:01:10.957Z,44.50
2022-09-12T09:04:14.145Z,44.70
2022-09-12T09:07:08.455Z,42.10
2022-09-12T09:10:02.968Z,44.10
2022-09-12T09:13:01.989Z,43.00
2022-09-12T09:16:31.808Z,45.00
2022-09-12T09:19:09.638Z,43.30
2022-09-12T09:22:17.330Z,43.70
2022-09-12T09:25:02.338Z,43.30
2022-09-12T09:27:50.559Z,45.10
2022-09-12T09:30:23.601Z,44.40
2022-09-12T09:33:04.440Z,43.80
2022-09-12T09:36:00.166Z,44.20
2022-09-12T09:39:03.986Z,44.50
2022-09-12T09:41:39.304Z,45.40
2022-09-12T09:46:37.652Z,44.80
2022-09-12T09:49:09.249Z,45.40
2022-09-12T09:51:41.906Z,43.90
2022-09-12T09:54:22.804Z,44.90
2022-09-12T09:56:52.445Z,44.80
2022-09-12T09:59:35.594Z,43.90
2022-09-12T10:02:24.169Z,43.70
2022-09-12T10:05:00.758Z,43.50
2022-09-12T10:07:30.137Z,43.90
2022-09-12T10:10:24.214Z,43.10
2022-09-12T10:13:11.186Z,43.70
2022-09-12T10:15:40.441Z,44.30
2022-09-12T10:18:09.805Z,44.20
2022-09-12T10:20:45.772Z,44.80
2022-09-12T10:23:38.900Z,45.20
2022-09-12T10:26:18.131Z,44.90
2022-09-12T10:28:56.308Z,45.50
2022-09-12T10:31:52.649Z,45.10
2022-09-12T10:34:46.916Z,43.10
2022-09-12T10:37:40.558Z,44.50
2022-09-12T10:40:27.500Z,44.10
2022-09-12T10:43:04.279Z,43.30
2022-09-12T10:45:37.293Z,44.10
2022-09-12T10:48:33.302Z,44.80
2022-09-12T10:51:04.008Z,43.50
2022-09-12T10:53:46.727Z,41.90
2022-09-12T10:56:25.597Z,43.30
2022-09-12T10:59:21.472Z,44.90
2022-09-12T11:02:32.430Z,42.50
2022-09-12T11:05:37.700Z,44.00
2022-09-12T11:08:46.113Z,40.90
2022-09-12T11:11:53.474Z,41.90
2022-09-12T11:14:40.494Z,42.10
2022-09-12T11:17:30.522Z,43.40
2022-09-12T11:20:13.343Z,42.80
2022-09-12T11:23:09.998Z,43.10
2022-09-12T11:26:07.722Z,43.20
2022-09-12T11:29:09.365Z,41.90
2022-09-12T11:32:22.271Z,41.70
2022-09-12T11:35:25.742Z,43.60
2022-09-12T11:38:13.664Z,42.90
2022-09-12T11:41:33.015Z,42.30
2022-09-12T11:44:27.100Z,40.50
2022-09-12T11:46:56.760Z,42.10
2022-09-12T11:49:39.870Z,41.10
2022-09-12T11:52:24.887Z,41.20
2022-09-12T11:55:18.154Z,43.10
2022-09-12T11:57:59.674Z,41.80
2022-09-12T12:00:43.262Z,42.20
2022-09-12T12:03:38.656Z,41.60
2022-09-12T12:06:15.888Z,42.00
2022-09-12T12:08:48.342Z,41.90
2022-09-12T12:11:54.647Z,40.00
2022-09-12T12:14:51.232Z,41.70
2022-09-12T12:17:26.653Z,41.80
2022-09-12T12:20:08.353Z,41.50
2022-09-12T12:22:38.325Z,40.70
2022-09-12T12:25:40.225Z,40.80
2022-09-12T12:28:10.195Z,41.40
2022-09-12T12:30:42.154Z,42.10
2022-09-12T12:33:19.241Z,39.60
2022-09-12T12:36:11.614Z,39.30
2022-09-12T12:38:42.266Z,39.60
2022-09-12T12:41:20.373Z,39.00
2022-09-12T12:43:55.532Z,41.00
2022-09-12T12:46:31.515Z,39.70
2022-09-12T12:49:29.492Z,41.80
2022-09-12T12:52:04.770Z,38.90
2022-09-12T12:54:54.640Z,40.30
2022-09-12T12:57:51.640Z,39.10
2022-09-12T13:00:27.191Z,38.30
2022-09-12T13:03:08.101Z,40.30
2022-09-12T13:05:55.503Z,39.90
2022-09-12T13:08:36.476Z,40.00
2022-09-12T13:11:28.365Z,40.70
2022-09-12T13:14:50.237Z,39.40
2022-09-12T13:17:28.047Z,38.50
2022-09-12T13:20:30.855Z,38.00
2022-09-12T13:23:04.168Z,37.30
2022-09-12T13:25:38.714Z,39.00
2022-09-12T13:28:12.385Z,39.50
2022-09-12T13:30:57.984Z,41.70
2022-09-12T13:34:09.006Z,40.50
2022-09-12T13:37:27.885Z,38.10
2022-09-12T13:40:37.366Z,37.30
2022-09-12T13:43:42.455Z,36.00
2022-09-12T13:46:17.584Z,38.70
2022-09-12T13:48:47.576Z,37.40
2022-09-12T13:51:31.139Z,38.60
2022-09-12T13:54:06.635Z,41.30
2022-09-12T13:56:37.828Z,38.80
2022-09-12T13:59:14.439Z,38.10
2022-09-12T14:01:49.516Z,39.00
2022-09-12T14:04:45.237Z,39.10
2022-09-12T14:07:25.336Z,40.00
2022-09-12T14:10:01.517Z,40.60
2022-09-12T14:12:44.721Z,39.10
2022-09-12T14:15:25.641Z,37.50
2022-09-12T14:18:04.351Z,41.50
2022-09-12T14:20:39.770Z,41.50
2022-09-12T14:23:22.597Z,40.00
2022-09-12T14:25:53.141Z,39.30
2022-09-12T14:28:23.811Z,40.90
2022-09-12T14:31:25.088Z,40.60
2022-09-12T14:34:12.497Z,38.90
2022-09-12T14:36:58.254Z,38.90
2022-09-12T14:39:45.286Z,40.20
2022-09-12T14:42:21.739Z,39.20
2022-09-12T14:45:22.075Z,39.40
2022-09-12T14:47:54.403Z,40.40
2022-09-12T14:50:36.347Z,42.50
2022-09-12T14:53:19.747Z,41.30
2022-09-12T14:56:11.746Z,41.60
2022-09-12T14:58:43.055Z,40.30
2022-09-12T15:01:15.468Z,41.60
2022-09-12T15:03:52.531Z,39.90
2022-09-12T15:06:42.156Z,41.70
2022-09-12T15:09:15.606Z,41.10
2022-09-12T15:11:45.524Z,41.10
2022-09-12T15:14:18.717Z,41.40
2022-09-12T15:16:47.899Z,40.80
2022-09-12T15:19:17.222Z,40.90
2022-09-12T15:21:46.515Z,39.50
2022-09-12T15:24:16.384Z,42.30
2022-09-12T15:26:45.474Z,40.90
2022-09-12T15:29:15.022Z,41.10
2022-09-12T15:31:48.809Z,42.50
2022-09-12T15:34:18.283Z,42.10
2022-09-12T15:36:47.672Z,39.70
2022-09-12T15:39:17.231Z,42.60
2022-09-12T15:41:46.617Z,42.10
2022-09-12T15:44:15.941Z,43.60
2022-09-12T15:46:46.365Z,39.20
2022-09-12T15:49:16.270Z,40.10
2022-09-12T15:51:45.439Z,39.80
2022-09-12T15:54:18.422Z,39.80
2022-09-12T15:56:47.944Z,37.50
2022-09-12T15:59:18.175Z,38.10
2022-09-12T16:01:48.136Z,37.60
2022-09-12T16:04:30.080Z,36.80
2022-09-12T16:06:59.631Z,36.20
2022-09-12T16:09:29.267Z,36.30
2022-09-12T16:11:58.606Z,36.70
2022-09-12T16:14:27.682Z,36.70
2022-09-12T16:16:57.944Z,37.80
2022-09-12T16:19:28.123Z,36.60
2022-09-12T16:21:57.545Z,36.20
2022-09-12T16:24:27.134Z,35.00
2022-09-12T16:27:00.912Z,35.30
2022-09-12T16:29:31.450Z,37.10
2022-09-12T16:32:00.694Z,32.70
2022-09-12T16:34:29.867Z,33.20
2022-09-12T16:36:59.044Z,26.20
2022-09-12T16:39:28.642Z,22.70
2022-09-12T16:41:57.971Z,22.20
2022-09-12T16:44:27.249Z,20.30
2022-09-12T16:46:56.802Z,19.50
2022-09-12T16:49:26.180Z,20.40
2022-09-12T16:51:55.529Z,21.60
2022-09-12T16:54:25.179Z,20.10
2022-09-12T16:56:54.656Z,20.10
2022-09-12T16:59:23.765Z,18.90
2022-09-12T17:01:53.297Z,17.90
2022-09-12T17:04:23.710Z,18.50
2022-09-12T17:06:53.272Z,20.00
2022-09-12T17:09:23.114Z,17.90
2022-09-12T17:11:53.468Z,19.10
2022-09-12T17:14:22.907Z,18.90
2022-09-12T17:16:53.342Z,21.10
2022-09-12T17:19:30.879Z,19.40
2022-09-12T17:22:00.689Z,19.30
2022-09-12T17:24:30.314Z,17.90
2022-09-12T17:27:00.395Z,18.30
2022-09-12T17:29:29.743Z,18.90
2022-09-12T17:31:58.926Z,18.00
2022-09-12T17:34:28.186Z,18.10
2022-09-12T17:36:57.380Z,18.50
2022-09-12T17:39:26.553Z,18.30
2022-09-12T17:41:58.503Z,19.90
2022-09-12T17:44:30.222Z,18.90
2022-09-12T17:46:59.488Z,18.40
2022-09-12T17:49:29.347Z,19.20
2022-09-12T17:51:58.918Z,19.80
2022-09-12T17:54:28.888Z,17.60
2022-09-12T17:56:58.359Z,17.50
2022-09-12T17:59:28.116Z,15.30
2022-09-12T18:02:17.064Z,16.00
2022-09-12T18:04:48.540Z,15.90
2022-09-12T18:07:20.315Z,16.10
2022-09-12T18:09:50.532Z,16.70
2022-09-12T18:12:21.063Z,18.90
2022-09-12T18:14:50.181Z,15.60
2022-09-12T18:17:19.678Z,13.90
2022-09-12T18:19:53.501Z,13.00
2022-09-12T18:22:23.034Z,13.00
2022-09-12T18:24:52.220Z,11.00
2022-09-12T18:27:21.399Z,10.60
2022-09-12T18:30:10.296Z,9.60
2022-09-12T18:32:40.023Z,9.60
2022-09-12T18:35:10.127Z,9.60
2022-09-12T18:37:41.501Z,10.30
2022-09-12T18:40:11.435Z,9.90
2022-09-12T18:42:40.840Z,9.80
2022-09-12T18:45:10.447Z,9.30
2022-09-12T18:47:39.486Z,9.00
2022-09-12T18:50:09.194Z,9.20
2022-09-12T18:52:38.559Z,9.20
2022-09-12T18:55:08.410Z,9.40
2022-09-12T18:57:37.536Z,9.30
2022-09-12T19:00:12.262Z,9.40
2022-09-12T19:02:41.735Z,9.40
2022-09-12T19:05:13.443Z,9.20
2022-09-12T19:07:42.938Z,9.40
2022-09-12T19:10:13.142Z,10.10
2022-09-12T19:12:42.453Z,10.20
2022-09-12T19:15:11.941Z,9.30
2022-09-12T19:17:41.276Z,9.90
2022-09-12T19:20:11.159Z,9.90
2022-09-12T19:22:40.496Z,10.00
2022-09-12T19:25:10.221Z,10.30
2022-09-12T19:27:39.567Z,10.10
2022-09-12T19:30:09.326Z,10.60
2022-09-12T19:32:38.643Z,10.30
2022-09-12T19:35:08.345Z,11.10
2022-09-12T19:37:37.693Z,10.40
2022-09-12T19:40:08.762Z,10.70
2022-09-12T19:42:37.919Z,11.20
2022-09-12T19:45:07.891Z,10.60
2022-09-12T19:47:40.045Z,11.30
2022-09-12T19:50:10.369Z,11.60
2022-09-12T19:52:39.515Z,12.00
2022-09-12T19:55:10.152Z,12.50
2022-09-12T19:57:39.306Z,11.70
2022-09-12T20:00:10.362Z,12.40
2022-09-12T20:02:39.697Z,13.40
2022-09-12T20:05:09.425Z,11.50
2022-09-12T20:07:39.399Z,12.40
2022-09-12T20:10:09.177Z,12.20
2022-09-12T20:12:38.310Z,12.90
2022-09-12T20:15:09.424Z,12.90
2022-09-12T20:17:38.883Z,12.40
2022-09-12T20:20:12.284Z,12.20
2022-09-12T20:22:41.712Z,12.80
2022-09-12T20:25:11.044Z,14.20
2022-09-12T20:27:40.159Z,13.70
2022-09-12T20:30:10.630Z,15.20
2022-09-12T20:32:39.852Z,15.40
2022-09-12T20:35:10.567Z,16.00
2022-09-12T20:37:41.586Z,16.70
2022-09-12T20:40:12.539Z,16.00
2022-09-12T20:42:41.931Z,15.90
2022-09-12T20:45:11.436Z,14.80
2022-09-12T20:47:40.573Z,14.60
2022-09-12T20:50:10.520Z,16.00
2022-09-12T20:52:39.926Z,14.90
2022-09-12T20:55:09.792Z,14.00
2022-09-12T20:57:39.495Z,15.90
2022-09-12T21:00:11.234Z,18.80
2022-09-12T21:02:40.455Z,17.20
2022-09-12T21:05:10.201Z,18.70
2022-09-12T21:07:39.509Z,16.40
2022-09-12T21:10:09.151Z,15.00
2022-09-12T21:12:38.654Z,15.80
2022-09-12T21:15:09.185Z,14.90
2022-09-12T21:17:38.361Z,14.70
2022-09-12T21:20:11.237Z,14.00
2022-09-12T21:22:40.886Z,15.00
2022-09-12T21:25:14.885Z,13.70
2022-09-12T21:27:44.321Z,13.80
2022-09-12T21:30:15.246Z,14.10
2022-09-12T21:32:44.625Z,13.70
2022-09-12T21:35:13.905Z,14.00
2022-09-12T21:37:43.388Z,14.20
2022-09-12T21:40:13.127Z,14.90
2022-09-12T21:42:42.967Z,15.60
2022-09-12T21:45:13.111Z,13.60
2022-09-12T21:47:42.464Z,12.70
2022-09-12T21:50:12.538Z,13.10
2022-09-12T21:52:41.702Z,12.30
2022-09-12T21:55:11.814Z,12.80
2022-09-12T21:57:41.251Z,13.70
2022-09-12T22:00:19.037Z,12.10
2022-09-12T22:02:50.680Z,12.00
2022-09-12T22:05:25.599Z,12.80
2022-09-12T22:07:54.911Z,12.60
2022-09-12T22:10:24.287Z,11.00
2022-09-12T22:12:53.612Z,12.30
2022-09-12T22:15:39.941Z,11.30
2022-09-12T22:18:09.988Z,11.70
2022-09-12T22:20:39.192Z,11.00
2022-09-12T22:23:29.075Z,11.30
2022-09-12T22:25:59.037Z,10.00
2022-09-12T22:28:28.434Z,9.90
2022-09-12T22:30:57.928Z,10.60
2022-09-12T22:33:27.500Z,10.70
2022-09-12T22:35:57.102Z,10.60
2022-09-12T22:38:27.260Z,10.50
2022-09-12T22:40:56.504Z,9.80
2022-09-12T22:43:26.126Z,9.70
2022-09-12T22:45:56.449Z,10.20
2022-09-12T22:48:26.049Z,9.90
2022-09-12T22:50:56.411Z,10.70
2022-09-12T22:53:25.760Z,10.50
2022-09-12T22:55:55.120Z,10.00
2022-09-12T22:58:24.481Z,9.40
2022-09-12T23:00:56.765Z,10.20
2022-09-12T23:03:25.949Z,9.40
2022-09-12T23:05:55.202Z,9.30
2022-09-12T23:08:24.483Z,9.30
2022-09-12T23:11:00.845Z,9.70
2022-09-12T23:13:30.497Z,9.70
2022-09-12T23:16:06.309Z,9.80
2022-09-12T23:18:39.011Z,9.60
2022-09-12T23:21:12.306Z,9.90
2022-09-12T23:23:41.671Z,9.80
2022-09-12T23:26:25.477Z,9.60
2022-09-12T23:28:58.778Z,10.50
2022-09-12T23:31:31.382Z,10.50
2022-09-12T23:34:03.714Z,10.10
2022-09-12T23:36:33.612Z,9.30
2022-09-12T23:39:03.402Z,10.30
2022-09-12T23:41:32.848Z,10.80
2022-09-12T23:44:02.264Z,11.00
2022-09-12T23:46:31.614Z,10.90
2022-09-12T23:49:00.823Z,10.90
2022-09-12T23:51:30.139Z,10.90
2022-09-12T23:53:59.615Z,11.00
2022-09-12T23:56:29.216Z,12.40
2022-09-12T23:58:58.424Z,12.00
